Time;durP1;ratioP1;P1;durP2;ratioP2;P2;SDS_P1;SDS_P2;PMS_P1;PMS_P2;Temp;Humidity;BMP_temperature;BMP_pressure;BME280_temperature;BME280_humidity;BME280_pressure;Samples;Min_cycle;Max_cycle;Signal;HPM_P1;HPM_P2
2023/08/26 00:00:48;;;;;;;;;;;;;;;29.76;60.37;101513.46;106769;1269;25424;-54
2023/08/26 00:03:15;;;;;;;;;;;;;;;29.75;60.41;101513.57;106738;1263;25366;-50
2023/08/26 00:05:43;;;;;;;;;;;;;;;29.75;60.51;101513.95;106822;1270;25316;-50
2023/08/26 00:08:10;;;;;;;;;;;;;;;29.75;60.41;101518.76;106816;1269;25344;-51
2023/08/26 00:10:37;;;;;;;;;;;;;;;29.74;60.26;101519.91;106841;1269;25489;-52
2023/08/26 00:13:04;;;;;;;;;;;;;;;29.74;60.53;101517.54;106826;1267;25373;-52
2023/08/26 00:15:31;;;;;;;;;;;;;;;29.74;60.29;101520.45;106835;1256;25445;-51
2023/08/26 00:17:58;;;;;;;;;;;;;;;29.72;60.44;101520.77;106612;1270;25497;-55
2023/08/26 00:20:26;;;;;;;;;;;;;;;29.72;60.54;101514.88;106775;1261;25329;-50
2023/08/26 00:22:53;;;;;;;;;;;;;;;29.71;60.73;101516.55;106883;1267;25325;-50
2023/08/26 00:25:20;;;;;;;;;;;;;;;29.71;60.84;101510.84;106821;1270;24308;-57
2023/08/26 00:27:47;;;;;;;;;;;;;;;29.71;60.86;101509.09;106738;1270;23169;-52
2023/08/26 00:30:14;;;;;;;;;;;;;;;29.70;60.99;101508.98;106955;1272;25349;-50
2023/08/26 00:32:41;;;;;;;;;;;;;;;29.70;60.78;101509.52;106427;1268;25316;-51
2023/08/26 00:35:09;;;;;;;;;;;;;;;29.70;61.03;101503.46;106630;1269;374912;-50
2023/08/26 00:37:36;;;;;;;;;;;;;;;29.69;60.97;101501.75;106678;1268;22506;-51
2023/08/26 00:40:03;;;;;;;;;;;;;;;29.68;60.96;101503.77;106688;1268;25316;-50
2023/08/26 00:42:37;;;;;;;;;;;;;;;29.68;60.93;101501.65;106758;1266;25337;-50
2023/08/26 00:45:05;;;;;;;;;;;;;;;29.67;61.07;101502.79;106527;1270;25343;-51
2023/08/26 00:47:32;;;;;;;;;;;;;;;29.67;61.14;101499.23;106623;1262;25373;-52
2023/08/26 00:49:59;;;;;;;;;;;;;;;29.67;61.18;101498.69;106840;1272;22501;-50
2023/08/26 00:52:27;;;;;;;;;;;;;;;29.66;61.33;101497.17;106758;1255;25363;-51
2023/08/26 00:54:54;;;;;;;;;;;;;;;29.65;61.13;101496.90;106762;1269;24223;-57
2023/08/26 00:57:21;;;;;;;;;;;;;;;29.65;61.05;101493.35;106786;1259;25433;-51
2023/08/26 00:59:48;;;;;;;;;;;;;;;29.65;61.25;101496.70;106738;1262;25440;-53
2023/08/26 01:02:14;;;;;;;;;;;;;;;29.65;61.39;101499.45;106804;1270;22510;-50
2023/08/26 01:04:41;;;;;;;;;;;;;;;29.65;61.51;101502.13;106728;1266;25315;-51
2023/08/26 01:07:09;;;;;;;;;;;;;;;29.64;61.44;101497.37;106763;1264;25532;-53
2023/08/26 01:09:37;;;;;;;;;;;;;;;29.63;61.46;101495.29;106852;1267;23976;-50
2023/08/26 01:12:10;;;;;;;;;;;;;;;29.63;61.61;101496.23;106765;1267;25312;-51
2023/08/26 01:14:38;;;;;;;;;;;;;;;29.62;61.45;101500.02;106885;1269;25346;-53
2023/08/26 01:17:05;;;;;;;;;;;;;;;29.61;61.31;101496.69;106734;1270;25249;-54
2023/08/26 01:19:35;;;;;;;;;;;;;;;29.61;61.49;101498.54;106771;1257;25259;-51
2023/08/26 01:22:03;;;;;;;;;;;;;;;29.60;61.47;101500.02;106850;1267;25314;-51
2023/08/26 01:24:30;;;;;;;;;;;;;;;29.60;61.55;101501.65;106649;1266;23623;-50
2023/08/26 01:26:58;;;;;;;;;;;;;;;29.60;61.55;101504.36;106320;1266;22514;-52
2023/08/26 01:29:26;;;;;;;;;;;;;;;29.59;61.58;101506.60;106370;1270;25456;-50
2023/08/26 01:32:14;;;;;;;;;;;;;;;29.59;61.67;101510.02;106713;1265;24644;-51
2023/08/26 01:34:46;;;;;;;;;;;;;;;29.59;61.68;101511.83;106237;1271;25580;-51
2023/08/26 01:37:13;;;;;;;;;;;;;;;29.59;61.62;101512.51;106192;1267;25347;-51
2023/08/26 01:39:40;;;;;;;;;;;;;;;29.59;61.67;101505.19;106373;1272;25474;-51
2023/08/26 01:42:07;;;;;;;;;;;;;;;29.58;61.77;101507.36;106369;1270;25479;-53
2023/08/26 01:44:34;;;;;;;;;;;;;;;29.58;61.82;101505.81;106397;1267;25313;-50
2023/08/26 01:47:03;;;;;;;;;;;;;;;29.57;61.61;101507.63;106300;1278;25312;-52
2023/08/26 01:49:29;;;;;;;;;;;;;;;29.57;61.75;101506.06;106298;1266;25351;-51
2023/08/26 01:51:56;;;;;;;;;;;;;;;29.57;61.89;101507.52;106297;1270;25474;-51
2023/08/26 01:54:23;;;;;;;;;;;;;;;29.56;61.87;101508.80;106353;1273;25322;-57
2023/08/26 01:56:50;;;;;;;;;;;;;;;29.56;61.96;101509.70;106313;1276;25495;-56
2023/08/26 01:59:18;;;;;;;;;;;;;;;29.56;62.06;101508.99;106356;1268;25310;-50
2023/08/26 02:01:45;;;;;;;;;;;;;;;29.56;61.92;101512.05;106269;1272;25388;-54
2023/08/26 02:04:12;;;;;;;;;;;;;;;29.55;61.93;101516.75;106368;1273;25325;-52
2023/08/26 02:06:40;;;;;;;;;;;;;;;29.56;62.04;101513.84;106342;1267;25330;-52
2023/08/26 02:09:07;;;;;;;;;;;;;;;29.55;61.92;101515.01;106475;1274;25329;-53
2023/08/26 02:11:34;;;;;;;;;;;;;;;29.55;61.71;101515.84;106326;1273;25354;-49
2023/08/26 02:14:01;;;;;;;;;;;;;;;29.55;61.72;101515.17;106412;1275;25354;-51
2023/08/26 02:16:28;;;;;;;;;;;;;;;29.56;61.82;101516.88;106579;1265;25344;-51
2023/08/26 02:18:56;;;;;;;;;;;;;;;29.56;61.81;101516.71;106811;1257;25445;-51
2023/08/26 02:21:22;;;;;;;;;;;;;;;29.56;61.71;101518.50;106859;1267;25341;-55
2023/08/26 02:23:50;;;;;;;;;;;;;;;29.56;61.83;101517.59;106730;1265;25221;-52
2023/08/26 02:26:17;;;;;;;;;;;;;;;29.57;61.86;101516.28;106875;1267;25312;-53
2023/08/26 02:28:44;;;;;;;;;;;;;;;29.56;61.63;101514.36;106765;1267;25316;-51
2023/08/26 02:31:11;;;;;;;;;;;;;;;29.56;61.55;101519.71;106854;1259;25407;-51
2023/08/26 02:33:38;;;;;;;;;;;;;;;29.56;61.53;101519.94;106765;1269;25306;-52
2023/08/26 02:36:05;;;;;;;;;;;;;;;29.56;61.67;101515.23;106909;1269;25306;-54
2023/08/26 02:38:32;;;;;;;;;;;;;;;29.56;61.65;101509.73;106766;1268;25316;-53
2023/08/26 02:41:00;;;;;;;;;;;;;;;29.56;61.69;101513.09;106834;1263;25440;-50
2023/08/26 02:43:27;;;;;;;;;;;;;;;29.56;61.87;101511.67;106846;1267;25316;-51
2023/08/26 02:45:54;;;;;;;;;;;;;;;29.56;61.91;101513.27;106778;1268;25316;-56
2023/08/26 02:48:21;;;;;;;;;;;;;;;29.56;62.04;101512.38;106601;1270;25462;-51
2023/08/26 02:50:58;;;;;;;;;;;;;;;29.56;62.05;101510.06;106768;1267;22510;-52
2023/08/26 02:53:25;;;;;;;;;;;;;;;29.56;61.82;101506.33;106531;1270;25317;-54
2023/08/26 02:55:52;;;;;;;;;;;;;;;29.56;61.85;101509.91;106743;1267;22497;-52
2023/08/26 02:58:19;;;;;;;;;;;;;;;29.56;61.74;101512.59;106781;1261;25328;-52
2023/08/26 03:00:47;;;;;;;;;;;;;;;29.55;61.63;101511.05;106715;1278;25316;-52
2023/08/26 03:03:14;;;;;;;;;;;;;;;29.55;61.84;101513.73;106924;1267;22519;-54
2023/08/26 03:05:41;;;;;;;;;;;;;;;29.55;61.78;101516.23;106834;1265;25306;-52
2023/08/26 03:08:08;;;;;;;;;;;;;;;29.55;61.80;101521.13;106807;1268;25358;-58
2023/08/26 03:10:35;;;;;;;;;;;;;;;29.53;61.93;101517.81;106632;1276;25316;-50
2023/08/26 03:13:03;;;;;;;;;;;;;;;29.54;61.88;101513.66;106871;1267;25437;-54
2023/08/26 03:15:29;;;;;;;;;;;;;;;29.54;62.14;101511.36;106789;1272;25414;-51
2023/08/26 03:17:57;;;;;;;;;;;;;;;29.54;61.77;101511.52;106798;1262;22521;-52
2023/08/26 03:20:25;;;;;;;;;;;;;;;29.53;61.90;101516.41;106830;1263;25341;-51
2023/08/26 03:22:52;;;;;;;;;;;;;;;29.53;61.76;101514.48;106777;1264;25434;-52
2023/08/26 03:25:19;;;;;;;;;;;;;;;29.52;61.62;101517.54;106765;1257;25327;-52
2023/08/26 03:27:45;;;;;;;;;;;;;;;29.53;61.44;101519.34;106747;1270;22515;-50
2023/08/26 03:30:12;;;;;;;;;;;;;;;29.53;61.62;101519.52;106800;1269;23339;-52
2023/08/26 03:32:40;;;;;;;;;;;;;;;29.53;61.59;101520.66;106830;1258;25460;-51
2023/08/26 03:35:07;;;;;;;;;;;;;;;29.54;61.58;101520.25;106481;1263;25305;-51
2023/08/26 03:37:34;;;;;;;;;;;;;;;29.55;61.61;101519.66;106829;1266;24348;-50
2023/08/26 03:40:06;;;;;;;;;;;;;;;29.55;61.56;101520.70;106801;1265;24339;-52
2023/08/26 03:42:33;;;;;;;;;;;;;;;29.56;61.52;101519.77;106741;1267;25325;-52
2023/08/26 03:45:00;;;;;;;;;;;;;;;29.57;61.62;101525.70;106779;1266;25370;-53
2023/08/26 03:47:27;;;;;;;;;;;;;;;29.59;61.52;101524.16;106523;1270;25315;-52
2023/08/26 03:49:54;;;;;;;;;;;;;;;29.60;61.44;101526.88;106764;1270;25337;-50
2023/08/26 03:52:21;;;;;;;;;;;;;;;29.62;61.43;101530.33;106832;1262;25306;-50
2023/08/26 03:54:48;;;;;;;;;;;;;;;29.63;61.64;101528.57;106895;1259;25398;-51
2023/08/26 03:57:17;;;;;;;;;;;;;;;29.65;61.73;101525.73;106774;1260;25333;-54
2023/08/26 03:59:44;;;;;;;;;;;;;;;29.67;61.78;101520.01;106817;1268;25344;-50
2023/08/26 04:02:10;;;;;;;;;;;;;;;29.68;61.64;101520.04;106843;1268;25433;-51
2023/08/26 04:04:37;;;;;;;;;;;;;;;29.70;61.64;101521.98;106775;1267;25344;-54
2023/08/26 04:07:04;;;;;;;;;;;;;;;29.73;61.43;101519.62;106717;1259;25466;-51
2023/08/26 04:09:31;;;;;;;;;;;;;;;29.77;61.46;101514.50;106825;1259;24226;-51
2023/08/26 04:11:58;;;;;;;;;;;;;;;29.80;61.51;101518.09;106764;1269;25316;-52
2023/08/26 04:14:26;;;;;;;;;;;;;;;29.83;61.45;101521.93;106740;1269;25512;-50
2023/08/26 04:16:52;;;;;;;;;;;;;;;29.86;61.43;101522.73;106773;1269;25327;-51
2023/08/26 04:19:20;;;;;;;;;;;;;;;29.90;61.27;101522.44;106719;1256;25344;-51
2023/08/26 04:21:47;;;;;;;;;;;;;;;29.92;61.37;101522.55;106808;1267;25340;-50
2023/08/26 04:24:14;;;;;;;;;;;;;;;29.95;61.37;101518.73;106797;1266;25402;-50
2023/08/26 04:26:41;;;;;;;;;;;;;;;29.98;61.01;101515.23;106698;1266;25452;-52
2023/08/26 04:29:08;;;;;;;;;;;;;;;30.01;60.99;101511.70;106829;1265;25344;-51
2023/08/26 04:31:35;;;;;;;;;;;;;;;30.03;61.10;101514.16;106725;1268;25393;-50
2023/08/26 04:34:02;;;;;;;;;;;;;;;30.07;61.25;101517.06;106767;1264;25344;-51
2023/08/26 04:36:29;;;;;;;;;;;;;;;30.09;60.92;101514.41;106719;1262;25389;-53
2023/08/26 04:38:57;;;;;;;;;;;;;;;30.11;60.68;101516.14;106899;1268;25315;-51
2023/08/26 04:41:24;;;;;;;;;;;;;;;30.13;60.49;101515.62;106867;1270;25316;-52
2023/08/26 04:43:52;;;;;;;;;;;;;;;30.15;60.33;101510.42;106753;1259;25396;-55
2023/08/26 04:46:20;;;;;;;;;;;;;;;30.17;60.40;101510.22;106733;1259;22507;-57
2023/08/26 04:48:51;;;;;;;;;;;;;;;30.19;60.33;101513.44;106833;1271;23848;-50
2023/08/26 04:51:18;;;;;;;;;;;;;;;30.20;60.21;101512.22;106910;1265;24197;-52
2023/08/26 04:53:44;;;;;;;;;;;;;;;30.21;59.97;101504.80;106768;1259;25372;-57
2023/08/26 04:56:11;;;;;;;;;;;;;;;30.23;60.14;101502.67;106851;1269;25315;-52
2023/08/26 04:58:39;;;;;;;;;;;;;;;30.25;60.27;101506.09;106787;1257;25431;-50
2023/08/26 05:01:06;;;;;;;;;;;;;;;30.26;60.24;101506.29;106829;1269;25393;-49
2023/08/26 05:03:33;;;;;;;;;;;;;;;30.28;60.06;101507.23;106551;1269;25316;-50
2023/08/26 05:06:00;;;;;;;;;;;;;;;30.30;60.14;101508.46;106882;1259;25305;-53
2023/08/26 05:08:27;;;;;;;;;;;;;;;30.32;60.17;101514.19;106765;1269;25341;-52
2023/08/26 05:10:54;;;;;;;;;;;;;;;30.35;59.98;101515.00;106749;1262;25299;-51
2023/08/26 05:13:21;;;;;;;;;;;;;;;30.37;59.97;101516.76;106722;1256;25488;-56
2023/08/26 05:15:48;;;;;;;;;;;;;;;30.40;59.79;101520.25;106696;1268;25337;-51
2023/08/26 05:18:18;;;;;;;;;;;;;;;30.43;59.63;101521.77;106772;1262;25384;-50
2023/08/26 05:20:46;;;;;;;;;;;;;;;30.46;59.61;101524.17;106674;1270;25350;-50
2023/08/26 05:23:14;;;;;;;;;;;;;;;30.49;59.67;101527.42;106742;1257;25312;-52
2023/08/26 05:25:43;;;;;;;;;;;;;;;30.52;59.41;101527.19;106818;1259;22507;-50
2023/08/26 05:28:10;;;;;;;;;;;;;;;30.54;59.40;101533.04;106720;1266;25392;-50
2023/08/26 05:30:37;;;;;;;;;;;;;;;30.58;59.28;101533.31;106779;1268;25331;-52
2023/08/26 05:33:05;;;;;;;;;;;;;;;30.60;59.24;101528.40;106819;1269;25494;-50
2023/08/26 05:35:33;;;;;;;;;;;;;;;30.63;59.20;101531.73;106774;1261;25321;-51
2023/08/26 05:38:00;;;;;;;;;;;;;;;30.66;59.11;101533.77;106751;1256;25315;-51
2023/08/26 05:40:29;;;;;;;;;;;;;;;30.68;59.14;101539.65;106784;1269;23638;-50
2023/08/26 05:42:56;;;;;;;;;;;;;;;30.70;59.00;101539.66;106760;1269;25306;-49
2023/08/26 05:45:24;;;;;;;;;;;;;;;30.71;58.89;101541.75;106725;1257;25398;-52
2023/08/26 05:47:51;;;;;;;;;;;;;;;30.72;58.91;101541.42;106848;1259;25338;-51
2023/08/26 05:50:18;;;;;;;;;;;;;;;30.73;58.87;101540.13;106746;1272;25325;-51
2023/08/26 05:52:45;;;;;;;;;;;;;;;30.74;59.02;101542.30;106427;1262;25354;-50
2023/08/26 05:55:12;;;;;;;;;;;;;;;30.78;59.27;101544.84;106410;1272;25299;-53
2023/08/26 05:57:40;;;;;;;;;;;;;;;30.81;59.15;101547.71;106416;1269;25418;-51
2023/08/26 06:00:08;;;;;;;;;;;;;;;30.87;58.71;101556.30;106356;1263;25343;-50
2023/08/26 06:02:42;;;;;;;;;;;;;;;30.93;58.74;101555.79;106673;1268;25327;-51
2023/08/26 06:05:10;;;;;;;;;;;;;;;31.00;58.80;101555.23;106452;1259;23848;-51
2023/08/26 06:07:37;;;;;;;;;;;;;;;31.10;58.59;101557.91;106655;1269;23354;-53
2023/08/26 06:10:04;;;;;;;;;;;;;;;31.18;58.12;101561.18;106641;1262;23002;-50
2023/08/26 06:12:31;;;;;;;;;;;;;;;31.28;57.82;101562.96;106628;1269;25364;-51
2023/08/26 06:14:58;;;;;;;;;;;;;;;31.40;57.53;101564.52;106808;1269;25392;-54
2023/08/26 06:17:28;;;;;;;;;;;;;;;31.55;57.13;101567.29;106759;1269;25331;-51
2023/08/26 06:19:55;;;;;;;;;;;;;;;31.72;56.70;101569.55;106709;1269;25357;-50
2023/08/26 06:22:21;;;;;;;;;;;;;;;31.92;56.06;101574.37;106860;1269;23874;-51
2023/08/26 06:24:48;;;;;;;;;;;;;;;32.15;55.59;101573.44;106666;1275;25452;-51
2023/08/26 06:27:15;;;;;;;;;;;;;;;32.33;54.42;101574.59;106836;1263;25299;-49
2023/08/26 06:29:44;;;;;;;;;;;;;;;32.42;53.52;101576.27;106912;1268;25344;-51
2023/08/26 06:32:11;;;;;;;;;;;;;;;32.41;52.35;101580.60;106820;1259;22510;-50
2023/08/26 06:34:38;;;;;;;;;;;;;;;32.38;53.14;101584.02;106729;1274;25366;-50
2023/08/26 06:37:05;;;;;;;;;;;;;;;32.37;53.18;101582.98;107103;1262;25317;-51
2023/08/26 06:39:32;;;;;;;;;;;;;;;32.39;52.56;101587.30;106940;1262;25327;-50
2023/08/26 06:41:59;;;;;;;;;;;;;;;32.41;52.40;101592.45;106760;1262;25833;-51
2023/08/26 06:44:27;;;;;;;;;;;;;;;32.42;52.13;101594.75;106709;1259;25321;-51
2023/08/26 06:46:53;;;;;;;;;;;;;;;32.40;51.77;101596.34;106750;1268;22526;-50
2023/08/26 06:49:20;;;;;;;;;;;;;;;32.38;51.74;101599.61;106843;1269;25386;-51
2023/08/26 06:51:47;;;;;;;;;;;;;;;32.33;51.45;101598.46;106779;1269;25367;-49
2023/08/26 06:54:14;;;;;;;;;;;;;;;32.29;51.22;101602.91;106579;1259;25666;-50
2023/08/26 06:56:41;;;;;;;;;;;;;;;32.23;50.65;101602.56;106929;1259;22626;-51
2023/08/26 06:59:08;;;;;;;;;;;;;;;32.18;50.38;101611.38;107157;1259;22510;-51
2023/08/26 07:01:35;;;;;;;;;;;;;;;32.14;50.34;101606.88;106882;1262;24019;-50
2023/08/26 07:04:02;;;;;;;;;;;;;;;32.12;50.34;101607.97;107075;1269;25316;-50
2023/08/26 07:06:30;;;;;;;;;;;;;;;32.14;50.22;101609.84;106809;1259;24162;-53
2023/08/26 07:08:57;;;;;;;;;;;;;;;32.17;50.75;101605.16;106940;1275;22562;-51
2023/08/26 07:11:24;;;;;;;;;;;;;;;32.21;50.63;101602.27;106688;1259;25344;-50
2023/08/26 07:13:50;;;;;;;;;;;;;;;32.23;50.00;101597.89;107173;1269;25395;-49
2023/08/26 07:16:17;;;;;;;;;;;;;;;32.28;49.69;101598.32;106812;1262;25315;-50
2023/08/26 07:18:44;;;;;;;;;;;;;;;32.36;49.19;101594.45;106841;1259;24081;-55
2023/08/26 07:21:11;;;;;;;;;;;;;;;32.45;48.74;101596.75;106916;1263;24188;-51
2023/08/26 07:23:38;;;;;;;;;;;;;;;32.53;48.51;101592.91;106942;1259;22641;-53
2023/08/26 07:26:05;;;;;;;;;;;;;;;32.60;48.66;101590.23;106624;1275;24323;-49
2023/08/26 07:28:32;;;;;;;;;;;;;;;32.72;47.73;101590.97;106852;1263;25316;-50
2023/08/26 07:31:03;;;;;;;;;;;;;;;32.89;47.12;101589.02;106779;1271;25315;-54
2023/08/26 07:33:30;;;;;;;;;;;;;;;33.04;47.52;101589.23;106804;1276;24342;-51
2023/08/26 07:36:02;;;;;;;;;;;;;;;33.15;47.02;101595.64;106994;1269;25402;-51
2023/08/26 07:38:30;;;;;;;;;;;;;;;33.19;47.81;101593.74;107145;1256;25500;-51
2023/08/26 07:40:57;;;;;;;;;;;;;;;33.21;47.87;101596.27;107543;1259;25395;-51
2023/08/26 07:43:23;;;;;;;;;;;;;;;33.19;47.93;101594.82;107289;1262;22534;-51
2023/08/26 07:45:50;;;;;;;;;;;;;;;33.15;48.11;101597.25;107127;1259;22500;-53
2023/08/26 07:48:37;;;;;;;;;;;;;;;33.09;48.49;101598.11;107286;1262;23397;-51
2023/08/26 07:51:05;;;;;;;;;;;;;;;33.02;48.78;101595.91;107191;1259;25344;-50
2023/08/26 07:53:32;;;;;;;;;;;;;;;32.94;48.70;101593.20;107377;1259;23395;-51
2023/08/26 07:55:58;;;;;;;;;;;;;;;32.87;48.55;101596.08;107023;1257;22500;-51
2023/08/26 07:58:25;;;;;;;;;;;;;;;32.80;48.78;101595.48;106735;1262;22510;-49
2023/08/26 08:00:53;;;;;;;;;;;;;;;32.77;48.92;101597.11;107084;1259;25380;-49
2023/08/26 08:03:20;;;;;;;;;;;;;;;32.73;49.45;101593.70;106751;1262;24351;-50
2023/08/26 08:05:47;;;;;;;;;;;;;;;32.73;49.45;101591.88;107037;1257;24209;-52
2023/08/26 08:08:14;;;;;;;;;;;;;;;32.74;49.09;101594.69;107244;1260;24363;-49
2023/08/26 08:10:42;;;;;;;;;;;;;;;32.74;49.13;101593.38;106864;1265;23526;-52
2023/08/26 08:13:11;;;;;;;;;;;;;;;32.75;49.32;101594.95;106528;1266;24226;-51
2023/08/26 08:15:38;;;;;;;;;;;;;;;32.75;49.13;101591.86;107071;1269;22523;-53
2023/08/26 08:18:05;;;;;;;;;;;;;;;32.75;49.09;101590.28;106780;1266;24173;-54
2023/08/26 08:20:32;;;;;;;;;;;;;;;32.74;48.98;101589.88;107362;1256;24179;-51
2023/08/26 08:22:59;;;;;;;;;;;;;;;32.73;48.63;101587.64;107213;1263;25306;-50
2023/08/26 08:25:26;;;;;;;;;;;;;;;32.70;48.60;101590.58;106936;1263;25313;-50
2023/08/26 08:27:53;;;;;;;;;;;;;;;32.68;48.72;101592.44;107189;1259;25302;-50
2023/08/26 08:30:20;;;;;;;;;;;;;;;32.64;48.47;101587.62;106975;1263;22729;-53
2023/08/26 08:32:46;;;;;;;;;;;;;;;32.62;48.67;101582.44;106860;1263;22611;-50
2023/08/26 08:35:13;;;;;;;;;;;;;;;32.60;48.60;101584.97;107238;1259;25306;-49
2023/08/26 08:37:40;;;;;;;;;;;;;;;32.58;48.81;101580.50;107152;1256;25346;-53
2023/08/26 08:40:08;;;;;;;;;;;;;;;32.56;48.69;101580.15;107121;1258;25268;-50
2023/08/26 08:42:35;;;;;;;;;;;;;;;32.56;48.60;101583.13;107387;1259;25386;-50
2023/08/26 08:45:03;;;;;;;;;;;;;;;32.56;48.84;101586.27;106888;1262;23849;-50
2023/08/26 08:47:33;;;;;;;;;;;;;;;32.57;48.95;101586.23;106709;1262;25306;-54
2023/08/26 08:50:00;;;;;;;;;;;;;;;32.58;48.63;101588.66;106868;1259;25342;-50
2023/08/26 08:52:28;;;;;;;;;;;;;;;32.60;48.53;101591.64;106797;1262;25390;-51
2023/08/26 08:54:55;;;;;;;;;;;;;;;32.64;49.22;101594.13;107178;1259;23260;-50
2023/08/26 08:57:23;;;;;;;;;;;;;;;32.68;49.20;101595.82;107007;1269;25320;-50
2023/08/26 08:59:50;;;;;;;;;;;;;;;32.73;49.26;101599.77;107274;1256;23393;-52
2023/08/26 09:02:17;;;;;;;;;;;;;;;32.79;48.99;101599.00;107397;1259;24205;-50
2023/08/26 09:04:44;;;;;;;;;;;;;;;32.84;49.06;101601.38;106947;1259;25356;-55
2023/08/26 09:07:14;;;;;;;;;;;;;;;32.87;49.19;101604.33;107125;1261;25353;-49
2023/08/26 09:09:41;;;;;;;;;;;;;;;32.90;48.75;101605.61;107200;1262;25305;-51
2023/08/26 09:12:22;;;;;;;;;;;;;;;32.94;48.50;101602.34;107403;1269;24205;-51
2023/08/26 09:14:50;;;;;;;;;;;;;;;32.96;48.66;101605.48;107324;1257;22632;-49
2023/08/26 09:17:17;;;;;;;;;;;;;;;32.97;48.59;101609.02;107156;1260;25302;-50
2023/08/26 09:19:54;;;;;;;;;;;;;;;32.97;48.80;101607.08;106856;1262;23289;-51
2023/08/26 09:22:24;;;;;;;;;;;;;;;32.96;47.96;101608.20;107259;1259;22539;-56
2023/08/26 09:24:58;;;;;;;;;;;;;;;32.95;47.92;101610.66;107228;1259;25311;-50
2023/08/26 09:27:25;;;;;;;;;;;;;;;32.93;48.38;101609.58;106787;1259;25482;-55
2023/08/26 09:29:52;;;;;;;;;;;;;;;32.91;48.75;101608.01;106926;1263;25334;-50
2023/08/26 09:32:36;;;;;;;;;;;;;;;32.88;48.42;101606.66;107173;1270;24029;-51
2023/08/26 09:35:09;;;;;;;;;;;;;;;32.86;47.60;101605.65;107656;1259;24206;-50
2023/08/26 09:37:36;;;;;;;;;;;;;;;32.84;47.77;101604.45;106937;1267;22509;-50
2023/08/26 09:40:04;;;;;;;;;;;;;;;32.82;47.78;101597.65;107019;1256;22495;-48
2023/08/26 09:42:31;;;;;;;;;;;;;;;32.79;48.36;101598.79;107142;1262;25111;-50
2023/08/26 09:44:58;;;;;;;;;;;;;;;32.80;48.72;101597.13;106961;1271;23893;-49
2023/08/26 09:47:29;;;;;;;;;;;;;;;32.81;48.78;101599.34;107422;1259;25438;-54
2023/08/26 09:49:56;;;;;;;;;;;;;;;32.83;48.75;101597.84;107150;1257;25555;-53
2023/08/26 09:52:23;;;;;;;;;;;;;;;32.86;48.53;101595.98;107133;1259;24383;-50
2023/08/26 09:54:51;;;;;;;;;;;;;;;32.88;49.04;101593.23;106816;1270;26538;-49
2023/08/26 09:57:18;;;;;;;;;;;;;;;32.89;48.80;101596.40;107076;1270;24191;-49
2023/08/26 09:59:46;;;;;;;;;;;;;;;32.87;48.60;101598.20;107204;1262;23285;-49
2023/08/26 10:02:22;;;;;;;;;;;;;;;32.85;48.49;101594.12;107319;1259;25343;-51
2023/08/26 10:04:51;;;;;;;;;;;;;;;32.86;48.48;101598.33;107104;1259;25309;-49
2023/08/26 10:07:18;;;;;;;;;;;;;;;32.87;48.24;101597.16;107104;1264;22503;-49
2023/08/26 10:10:11;;;;;;;;;;;;;;;32.87;48.29;101593.72;107132;1257;25371;-50
2023/08/26 10:12:42;;;;;;;;;;;;;;;32.87;48.02;101589.59;106500;1266;25326;-54
2023/08/26 10:15:12;;;;;;;;;;;;;;;32.87;48.00;101592.95;106696;1265;25370;-53
2023/08/26 10:17:44;;;;;;;;;;;;;;;32.88;47.96;101588.54;106372;1265;24372;-52
2023/08/26 10:20:11;;;;;;;;;;;;;;;32.91;48.00;101586.99;106265;1263;23301;-50
2023/08/26 10:22:38;;;;;;;;;;;;;;;32.94;47.88;101585.61;106219;1271;25322;-48
2023/08/26 10:25:05;;;;;;;;;;;;;;;32.97;48.11;101586.73;106503;1266;25321;-49
2023/08/26 10:27:33;;;;;;;;;;;;;;;33.01;47.92;101592.64;106544;1265;25350;-49
2023/08/26 10:30:00;;;;;;;;;;;;;;;33.04;48.24;101589.48;106585;1268;23283;-49
2023/08/26 10:32:27;;;;;;;;;;;;;;;33.05;48.14;101589.70;106668;1268;25466;-50
2023/08/26 10:34:57;;;;;;;;;;;;;;;33.07;47.83;101595.81;106607;1262;25306;-51
2023/08/26 10:37:33;;;;;;;;;;;;;;;33.07;47.43;101597.73;106507;1273;22513;-53
2023/08/26 10:40:04;;;;;;;;;;;;;;;33.07;47.64;101600.81;106393;1261;22527;-50
2023/08/26 10:42:30;;;;;;;;;;;;;;;33.07;47.46;101599.02;106993;1263;22514;-50
2023/08/26 10:44:57;;;;;;;;;;;;;;;33.06;47.34;101600.16;106513;1265;23076;-49
2023/08/26 10:47:34;;;;;;;;;;;;;;;33.06;47.18;101600.41;106373;1270;25350;-55
2023/08/26 10:50:28;;;;;;;;;;;;;;;33.03;47.09;101597.85;106847;1260;22515;-49
2023/08/26 10:52:57;;;;;;;;;;;;;;;33.00;47.31;101603.48;106504;1272;25468;-50
2023/08/26 10:55:32;;;;;;;;;;;;;;;32.99;47.60;101604.33;106507;1268;25317;-49
2023/08/26 10:58:03;;;;;;;;;;;;;;;32.98;47.73;101603.00;106389;1274;24405;-49
2023/08/26 11:00:31;;;;;;;;;;;;;;;32.97;47.94;101602.60;106563;1268;25328;-50
2023/08/26 11:02:58;;;;;;;;;;;;;;;32.95;48.07;101598.80;106784;1275;25679;-49
2023/08/26 11:05:25;;;;;;;;;;;;;;;32.93;47.80;101600.95;106695;1277;24019;-50
2023/08/26 11:07:52;;;;;;;;;;;;;;;32.92;47.83;101600.77;106199;1267;25334;-50
2023/08/26 11:10:26;;;;;;;;;;;;;;;32.90;48.35;101602.94;106609;1263;25468;-53
2023/08/26 11:12:53;;;;;;;;;;;;;;;32.90;48.21;101604.36;106390;1266;25508;-50
2023/08/26 11:15:20;;;;;;;;;;;;;;;32.91;48.10;101603.55;106709;1268;25621;-49
2023/08/26 11:17:48;;;;;;;;;;;;;;;32.91;48.01;101604.04;106620;1265;25327;-49
2023/08/26 11:20:18;;;;;;;;;;;;;;;32.92;47.90;101604.11;106404;1271;24458;-51
2023/08/26 11:22:45;;;;;;;;;;;;;;;32.94;47.88;101600.52;106442;1265;24450;-49
2023/08/26 11:25:15;;;;;;;;;;;;;;;32.96;47.79;101599.75;106484;1268;25329;-49
2023/08/26 11:27:42;;;;;;;;;;;;;;;32.98;47.74;101597.04;106077;1263;24562;-51
2023/08/26 11:30:10;;;;;;;;;;;;;;;33.02;47.91;101597.80;106865;1275;25305;-49
2023/08/26 11:32:37;;;;;;;;;;;;;;;33.05;47.64;101593.48;106921;1262;22515;-51
2023/08/26 11:35:04;;;;;;;;;;;;;;;33.07;47.67;101594.57;107228;1256;22510;-49
2023/08/26 11:37:44;;;;;;;;;;;;;;;33.07;47.60;101599.50;106796;1277;25343;-52
2023/08/26 11:40:12;;;;;;;;;;;;;;;33.09;47.82;101596.14;107147;1258;25343;-50
2023/08/26 11:42:39;;;;;;;;;;;;;;;33.08;47.30;101589.73;107527;1256;25479;-54
2023/08/26 11:45:12;;;;;;;;;;;;;;;33.07;47.38;101590.38;107081;1258;23299;-49
2023/08/26 11:47:39;;;;;;;;;;;;;;;33.05;47.59;101592.88;106848;1262;25328;-55
2023/08/26 11:50:06;;;;;;;;;;;;;;;32.95;47.99;101591.26;107067;1266;23361;-50
2023/08/26 11:52:37;;;;;;;;;;;;;;;32.86;48.38;101589.17;107287;1259;22630;-51
2023/08/26 11:55:04;;;;;;;;;;;;;;;32.94;48.18;101586.69;106803;1272;24369;-48
2023/08/26 11:57:32;;;;;;;;;;;;;;;32.96;48.08;101586.67;106908;1269;24607;-52
2023/08/26 12:00:07;;;;;;;;;;;;;;;32.94;48.21;101583.60;107299;1269;25306;-51
2023/08/26 12:02:39;;;;;;;;;;;;;;;32.92;48.14;101579.20;107101;1264;25425;-52
2023/08/26 12:05:06;;;;;;;;;;;;;;;32.90;48.49;101575.29;106958;1257;24504;-49
2023/08/26 12:07:33;;;;;;;;;;;;;;;32.88;48.50;101570.95;106801;1268;25418;-48
2023/08/26 12:10:18;;;;;;;;;;;;;;;32.87;48.34;101568.11;107012;1259;24192;-49
2023/08/26 12:12:46;;;;;;;;;;;;;;;32.87;48.24;101565.95;106972;1262;23868;-49
2023/08/26 12:15:16;;;;;;;;;;;;;;;32.87;48.14;101559.73;106891;1269;25456;-48
2023/08/26 12:17:47;;;;;;;;;;;;;;;32.87;48.09;101556.09;107001;1270;25370;-48
2023/08/26 12:20:30;;;;;;;;;;;;;;;32.88;48.09;101549.58;107112;1261;23299;-51
2023/08/26 12:23:01;;;;;;;;;;;;;;;32.89;47.79;101551.65;106712;1262;25465;-50
2023/08/26 12:25:30;;;;;;;;;;;;;;;32.89;47.71;101547.14;106855;1262;23398;-51
2023/08/26 12:28:13;;;;;;;;;;;;;;;32.88;47.32;101547.42;107254;1256;25390;-49
2023/08/26 12:30:40;;;;;;;;;;;;;;;32.86;47.88;101545.09;107124;1267;22620;-51